
<gpx xmlns="http://www.topografix.com/GPX/1/1" xmlns:gpxx="http://www.garmin.com/xmlschemas/GpxExtensions/v3" xmlns:xsi="http://www.w3.org/2001/XMLSchema-instance" version="1.1" creator="Adze - http://kobotsw.com/apps/adze" xsi:schemaLocation="http://www.topografix.com/GPX/1/1 http://www.topografix.com/GPX/1/1/gpx.xsd http://www.garmin.com/xmlschemas/GpxExtensions/v3 http://www.garmin.com/xmlschemas/GpxExtensionsv3.xsd">
    <metadata>
        <name>Untitled Document</name>
        <link href="http://www.garmin.com"></link>
        <time>2018-02-26T06:43:57.822Z</time>
    </metadata>
    <wpt lon="99.853737" lat="14.483341">
        <ele>47.000000</ele>
        <time>2014-05-24T06:05:28Z</time>
        <name>Resort</name>
        <cmt>24-MAY-14 1:05:28PM</cmt>
        <desc>24-MAY-14 1:05:28PM</desc>
        <sym>Lodging</sym>
        <extensions>
            <gpxx:WaypointExtension xmlns:gpxx="http://www.garmin.com/xmlschemas/GpxExtensions/v3">
                <gpxx:DisplayMode>SymbolOnly</gpxx:DisplayMode>
            </gpxx:WaypointExtension>
        </extensions>
    </wpt>
    <trk>
        <name>Saturday</name>
        <extensions>
            <gpxx:TrackExtension xmlns:gpxx="http://www.garmin.com/xmlschemas/GpxExtensions/v3">
                <gpxx:DisplayColor>Red</gpxx:DisplayColor>
            </gpxx:TrackExtension>
        </extensions>
        <trkseg>
            <trkpt lon="99.853809" lat="14.483336">
                <ele>43.880000</ele>
                <time>2014-05-24T06:04:42Z</time>
            </trkpt>
            <trkpt lon="99.854264" lat="14.483515">
                <ele>37.630000</ele>
                <time>2014-05-24T06:06:35Z</time>
            </trkpt>
            <trkpt lon="99.854822" lat="14.483430">
                <ele>36.670000</ele>
                <time>2014-05-24T06:06:49Z</time>
            </trkpt>
            <trkpt lon="99.855054" lat="14.482353">
                <ele>36.670000</ele>
                <time>2014-05-24T06:07:21Z</time>
            </trkpt>
            <trkpt lon="99.854930" lat="14.482257">
                <ele>36.670000</ele>
                <time>2014-05-24T06:07:27Z</time>
            </trkpt>
            <trkpt lon="99.853988" lat="14.482186">
                <ele>38.110000</ele>
                <time>2014-05-24T06:07:55Z</time>
            </trkpt>
            <trkpt lon="99.853695" lat="14.482487">
                <ele>38.110000</ele>
                <time>2014-05-24T06:08:08Z</time>
            </trkpt>
            <trkpt lon="99.853283" lat="14.482506">
                <ele>39.070000</ele>
                <time>2014-05-24T06:08:20Z</time>
            </trkpt>
            <trkpt lon="99.852481" lat="14.482165">
                <ele>41.470000</ele>
                <time>2014-05-24T06:08:43Z</time>
            </trkpt>
            <trkpt lon="99.852330" lat="14.481886">
                <ele>41.470000</ele>
                <time>2014-05-24T06:08:50Z</time>
            </trkpt>
            <trkpt lon="99.852007" lat="14.481776">
                <ele>41.470000</ele>
                <time>2014-05-24T06:08:57Z</time>
            </trkpt>
            <trkpt lon="99.849889" lat="14.482040">
                <ele>44.360000</ele>
                <time>2014-05-24T06:09:34Z</time>
            </trkpt>
            <trkpt lon="99.849658" lat="14.482361">
                <ele>43.400000</ele>
                <time>2014-05-24T06:09:41Z</time>
            </trkpt>
            <trkpt lon="99.849691" lat="14.482987">
                <ele>43.400000</ele>
                <time>2014-05-24T06:09:50Z</time>
            </trkpt>
            <trkpt lon="99.849966" lat="14.485097">
                <ele>40.990000</ele>
                <time>2014-05-24T06:10:24Z</time>
            </trkpt>
            <trkpt lon="99.846712" lat="14.485853">
                <ele>43.880000</ele>
                <time>2014-05-24T06:11:41Z</time>
            </trkpt>
            <trkpt lon="99.845959" lat="14.485661">
                <ele>46.280000</ele>
                <time>2014-05-24T06:11:59Z</time>
            </trkpt>
            <trkpt lon="99.845599" lat="14.486501">
                <ele>46.280000</ele>
                <time>2014-05-24T06:12:14Z</time>
            </trkpt>
            <trkpt lon="99.845243" lat="14.486858">
                <ele>46.760000</ele>
                <time>2014-05-24T06:12:22Z</time>
            </trkpt>
            <trkpt lon="99.844269" lat="14.486801">
                <ele>51.090000</ele>
                <time>2014-05-24T06:13:03Z</time>
            </trkpt>
            <trkpt lon="99.844256" lat="14.487020">
                <ele>50.130000</ele>
                <time>2014-05-24T06:13:11Z</time>
            </trkpt>
            <trkpt lon="99.844558" lat="14.487462">
                <ele>48.680000</ele>
                <time>2014-05-24T06:13:22Z</time>
            </trkpt>
            <trkpt lon="99.845303" lat="14.487286">
                <ele>46.760000</ele>
                <time>2014-05-24T06:13:40Z</time>
            </trkpt>
            <trkpt lon="99.845680" lat="14.487113">
                <ele>46.280000</ele>
                <time>2014-05-24T06:13:48Z</time>
            </trkpt>
            <trkpt lon="99.846052" lat="14.486755">
                <ele>45.800000</ele>
                <time>2014-05-24T06:14:00Z</time>
            </trkpt>
            <trkpt lon="99.846272" lat="14.486125">
                <ele>45.800000</ele>
                <time>2014-05-24T06:14:19Z</time>
            </trkpt>
            <trkpt lon="99.846276" lat="14.486196">
                <ele>45.320000</ele>
                <time>2014-05-24T06:14:26Z</time>
            </trkpt>
            <trkpt lon="99.845654" lat="14.487122">
                <ele>46.280000</ele>
                <time>2014-05-24T06:15:00Z</time>
            </trkpt>
            <trkpt lon="99.844169" lat="14.487619">
                <ele>50.130000</ele>
                <time>2014-05-24T06:15:40Z</time>
            </trkpt>
            <trkpt lon="99.843950" lat="14.488006">
                <ele>50.610000</ele>
                <time>2014-05-24T06:15:54Z</time>
            </trkpt>
            <trkpt lon="99.844241" lat="14.487584">
                <ele>50.610000</ele>
                <time>2014-05-24T06:16:12Z</time>
            </trkpt>
            <trkpt lon="99.844243" lat="14.486933">
                <ele>51.570000</ele>
                <time>2014-05-24T06:16:35Z</time>
            </trkpt>
            <trkpt lon="99.844233" lat="14.486835">
                <ele>51.570000</ele>
                <time>2014-05-24T06:16:38Z</time>
            </trkpt>
            <trkpt lon="99.843734" lat="14.486674">
                <ele>54.450000</ele>
                <time>2014-05-24T06:16:52Z</time>
            </trkpt>
            <trkpt lon="99.843413" lat="14.486740">
                <ele>55.410000</ele>
                <time>2014-05-24T06:17:00Z</time>
            </trkpt>
            <trkpt lon="99.842939" lat="14.486998">
                <ele>56.370000</ele>
                <time>2014-05-24T06:17:13Z</time>
            </trkpt>
            <trkpt lon="99.843513" lat="14.486689">
                <ele>55.410000</ele>
                <time>2014-05-24T06:17:40Z</time>
            </trkpt>
            <trkpt lon="99.845148" lat="14.486920">
                <ele>48.680000</ele>
                <time>2014-05-24T06:18:07Z</time>
            </trkpt>
            <trkpt lon="99.845581" lat="14.486564">
                <ele>47.240000</ele>
                <time>2014-05-24T06:18:17Z</time>
            </trkpt>
            <trkpt lon="99.846020" lat="14.485646">
                <ele>47.240000</ele>
                <time>2014-05-24T06:18:40Z</time>
            </trkpt>
            <trkpt lon="99.846200" lat="14.485638">
                <ele>47.240000</ele>
                <time>2014-05-24T06:18:44Z</time>
            </trkpt>
            <trkpt lon="99.846808" lat="14.485822">
                <ele>45.320000</ele>
                <time>2014-05-24T06:18:59Z</time>
            </trkpt>
            <trkpt lon="99.848807" lat="14.485390">
                <ele>43.880000</ele>
                <time>2014-05-24T06:19:34Z</time>
            </trkpt>
            <trkpt lon="99.849051" lat="14.485338">
                <ele>42.920000</ele>
                <time>2014-05-24T06:19:39Z</time>
            </trkpt>
            <trkpt lon="99.846631" lat="14.485854">
                <ele>46.280000</ele>
                <time>2014-05-24T06:20:30Z</time>
            </trkpt>
            <trkpt lon="99.846169" lat="14.485647">
                <ele>47.720000</ele>
                <time>2014-05-24T06:20:44Z</time>
            </trkpt>
            <trkpt lon="99.845859" lat="14.485752">
                <ele>48.200000</ele>
                <time>2014-05-24T06:20:53Z</time>
            </trkpt>
            <trkpt lon="99.845696" lat="14.486357">
                <ele>47.720000</ele>
                <time>2014-05-24T06:21:08Z</time>
            </trkpt>
            <trkpt lon="99.845231" lat="14.486883">
                <ele>48.680000</ele>
                <time>2014-05-24T06:21:26Z</time>
            </trkpt>
            <trkpt lon="99.844349" lat="14.486803">
                <ele>52.530000</ele>
                <time>2014-05-24T06:21:50Z</time>
            </trkpt>
            <trkpt lon="99.844244" lat="14.487022">
                <ele>51.570000</ele>
                <time>2014-05-24T06:21:58Z</time>
            </trkpt>
            <trkpt lon="99.844275" lat="14.487125">
                <ele>50.130000</ele>
                <time>2014-05-24T06:22:00Z</time>
            </trkpt>
            <trkpt lon="99.844568" lat="14.487446">
                <ele>50.130000</ele>
                <time>2014-05-24T06:22:09Z</time>
            </trkpt>
            <trkpt lon="99.844969" lat="14.487406">
                <ele>49.160000</ele>
                <time>2014-05-24T06:22:20Z</time>
            </trkpt>
            <trkpt lon="99.845933" lat="14.486897">
                <ele>47.720000</ele>
                <time>2014-05-24T06:22:43Z</time>
            </trkpt>
            <trkpt lon="99.846311" lat="14.486028">
                <ele>49.160000</ele>
                <time>2014-05-24T06:35:38Z</time>
            </trkpt>
            <trkpt lon="99.845846" lat="14.486968">
                <ele>50.130000</ele>
                <time>2014-05-24T06:36:04Z</time>
            </trkpt>
            <trkpt lon="99.845165" lat="14.487330">
                <ele>51.090000</ele>
                <time>2014-05-24T06:36:18Z</time>
            </trkpt>
            <trkpt lon="99.844417" lat="14.487537">
                <ele>53.490000</ele>
                <time>2014-05-24T06:36:34Z</time>
            </trkpt>
            <trkpt lon="99.844081" lat="14.487810">
                <ele>53.970000</ele>
                <time>2014-05-24T06:36:43Z</time>
            </trkpt>
            <trkpt lon="99.844014" lat="14.488468">
                <ele>53.970000</ele>
                <time>2014-05-24T06:36:56Z</time>
            </trkpt>
            <trkpt lon="99.846064" lat="14.491724">
                <ele>46.760000</ele>
                <time>2014-05-24T06:37:58Z</time>
            </trkpt>
            <trkpt lon="99.845862" lat="14.492999">
                <ele>47.240000</ele>
                <time>2014-05-24T06:38:19Z</time>
            </trkpt>
            <trkpt lon="99.846209" lat="14.493706">
                <ele>45.320000</ele>
                <time>2014-05-24T06:38:30Z</time>
            </trkpt>
            <trkpt lon="99.846503" lat="14.494027">
                <ele>45.320000</ele>
                <time>2014-05-24T06:38:36Z</time>
            </trkpt>
            <trkpt lon="99.846515" lat="14.494169">
                <ele>44.840000</ele>
                <time>2014-05-24T06:38:42Z</time>
            </trkpt>
            <trkpt lon="99.846213" lat="14.494366">
                <ele>44.360000</ele>
                <time>2014-05-24T06:38:51Z</time>
            </trkpt>
            <trkpt lon="99.846207" lat="14.494779">
                <ele>44.840000</ele>
                <time>2014-05-24T06:39:00Z</time>
            </trkpt>
            <trkpt lon="99.845313" lat="14.495027">
                <ele>46.760000</ele>
                <time>2014-05-24T06:39:18Z</time>
            </trkpt>
            <trkpt lon="99.844825" lat="14.495050">
                <ele>47.720000</ele>
                <time>2014-05-24T06:39:29Z</time>
            </trkpt>
            <trkpt lon="99.844419" lat="14.495057">
                <ele>47.720000</ele>
                <time>2014-05-24T06:39:39Z</time>
            </trkpt>
            <trkpt lon="99.843846" lat="14.494916">
                <ele>48.680000</ele>
                <time>2014-05-24T06:39:56Z</time>
            </trkpt>
            <trkpt lon="99.843459" lat="14.494634">
                <ele>50.130000</ele>
                <time>2014-05-24T06:40:09Z</time>
            </trkpt>
            <trkpt lon="99.843349" lat="14.494546">
                <ele>50.130000</ele>
                <time>2014-05-24T06:40:12Z</time>
            </trkpt>
            <trkpt lon="99.842464" lat="14.493761">
                <ele>52.050000</ele>
                <time>2014-05-24T06:40:38Z</time>
            </trkpt>
            <trkpt lon="99.842127" lat="14.493201">
                <ele>54.930000</ele>
                <time>2014-05-24T06:40:54Z</time>
            </trkpt>
            <trkpt lon="99.841674" lat="14.492922">
                <ele>55.410000</ele>
                <time>2014-05-24T06:41:06Z</time>
            </trkpt>
            <trkpt lon="99.840983" lat="14.492259">
                <ele>58.300000</ele>
                <time>2014-05-24T06:41:28Z</time>
            </trkpt>
            <trkpt lon="99.840431" lat="14.490938">
                <ele>64.550000</ele>
                <time>2014-05-24T06:42:06Z</time>
            </trkpt>
            <trkpt lon="99.840100" lat="14.490517">
                <ele>65.030000</ele>
                <time>2014-05-24T06:42:20Z</time>
            </trkpt>
            <trkpt lon="99.839960" lat="14.490128">
                <ele>66.470000</ele>
                <time>2014-05-24T06:42:34Z</time>
            </trkpt>
            <trkpt lon="99.840027" lat="14.489720">
                <ele>69.350000</ele>
                <time>2014-05-24T06:42:50Z</time>
            </trkpt>
            <trkpt lon="99.839994" lat="14.488643">
                <ele>70.790000</ele>
                <time>2014-05-24T06:43:18Z</time>
            </trkpt>
            <trkpt lon="99.839818" lat="14.488014">
                <ele>71.760000</ele>
                <time>2014-05-24T06:43:34Z</time>
            </trkpt>
            <trkpt lon="99.839901" lat="14.487850">
                <ele>71.760000</ele>
                <time>2014-05-24T06:43:39Z</time>
            </trkpt>
            <trkpt lon="99.839652" lat="14.487408">
                <ele>74.160000</ele>
                <time>2014-05-24T06:43:57Z</time>
            </trkpt>
            <trkpt lon="99.839370" lat="14.487378">
                <ele>75.600000</ele>
                <time>2014-05-24T06:44:08Z</time>
            </trkpt>
            <trkpt lon="99.838626" lat="14.487146">
                <ele>73.680000</ele>
                <time>2014-05-24T06:44:24Z</time>
            </trkpt>
            <trkpt lon="99.838119" lat="14.486642">
                <ele>75.120000</ele>
                <time>2014-05-24T06:44:38Z</time>
            </trkpt>
            <trkpt lon="99.838040" lat="14.486531">
                <ele>74.640000</ele>
                <time>2014-05-24T06:44:41Z</time>
            </trkpt>
            <trkpt lon="99.838099" lat="14.485747">
                <ele>78.000000</ele>
                <time>2014-05-24T06:45:00Z</time>
            </trkpt>
            <trkpt lon="99.837752" lat="14.484624">
                <ele>81.850000</ele>
                <time>2014-05-24T06:45:27Z</time>
            </trkpt>
            <trkpt lon="99.837560" lat="14.484175">
                <ele>82.810000</ele>
                <time>2014-05-24T06:45:39Z</time>
            </trkpt>
            <trkpt lon="99.837097" lat="14.483981">
                <ele>81.850000</ele>
                <time>2014-05-24T06:45:49Z</time>
            </trkpt>
            <trkpt lon="99.836917" lat="14.483658">
                <ele>83.290000</ele>
                <time>2014-05-24T06:45:57Z</time>
            </trkpt>
            <trkpt lon="99.836842" lat="14.482867">
                <ele>86.180000</ele>
                <time>2014-05-24T06:46:19Z</time>
            </trkpt>
            <trkpt lon="99.836978" lat="14.481927">
                <ele>90.980000</ele>
                <time>2014-05-24T06:46:50Z</time>
            </trkpt>
            <trkpt lon="99.836953" lat="14.481716">
                <ele>91.460000</ele>
                <time>2014-05-24T06:46:56Z</time>
            </trkpt>
            <trkpt lon="99.837202" lat="14.481566">
                <ele>92.900000</ele>
                <time>2014-05-24T06:47:08Z</time>
            </trkpt>
            <trkpt lon="99.837371" lat="14.481264">
                <ele>95.790000</ele>
                <time>2014-05-24T06:47:21Z</time>
            </trkpt>
            <trkpt lon="99.837561" lat="14.480296">
                <ele>100.600000</ele>
                <time>2014-05-24T06:47:59Z</time>
            </trkpt>
            <trkpt lon="99.838018" lat="14.479602">
                <ele>107.320000</ele>
                <time>2014-05-24T06:48:38Z</time>
            </trkpt>
            <trkpt lon="99.837156" lat="14.479179">
                <ele>101.560000</ele>
                <time>2014-05-24T06:48:58Z</time>
            </trkpt>
            <trkpt lon="99.836933" lat="14.478946">
                <ele>101.080000</ele>
                <time>2014-05-24T06:49:04Z</time>
            </trkpt>
            <trkpt lon="99.835542" lat="14.478670">
                <ele>106.840000</ele>
                <time>2014-05-24T06:49:51Z</time>
            </trkpt>
            <trkpt lon="99.835215" lat="14.478826">
                <ele>105.880000</ele>
                <time>2014-05-24T06:50:03Z</time>
            </trkpt>
            <trkpt lon="99.835134" lat="14.479014">
                <ele>103.960000</ele>
                <time>2014-05-24T06:50:07Z</time>
            </trkpt>
            <trkpt lon="99.834906" lat="14.479025">
                <ele>103.480000</ele>
                <time>2014-05-24T06:50:13Z</time>
            </trkpt>
            <trkpt lon="99.834667" lat="14.479409">
                <ele>99.630000</ele>
                <time>2014-05-24T06:50:22Z</time>
            </trkpt>
            <trkpt lon="99.834405" lat="14.479560">
                <ele>97.710000</ele>
                <time>2014-05-24T06:50:29Z</time>
            </trkpt>
            <trkpt lon="99.833570" lat="14.479318">
                <ele>101.080000</ele>
                <time>2014-05-24T06:50:57Z</time>
            </trkpt>
            <trkpt lon="99.832766" lat="14.479437">
                <ele>101.080000</ele>
                <time>2014-05-24T06:51:13Z</time>
            </trkpt>
            <trkpt lon="99.832105" lat="14.479234">
                <ele>101.560000</ele>
                <time>2014-05-24T06:51:25Z</time>
            </trkpt>
            <trkpt lon="99.830434" lat="14.478940">
                <ele>101.080000</ele>
                <time>2014-05-24T06:51:51Z</time>
            </trkpt>
            <trkpt lon="99.828576" lat="14.479053">
                <ele>99.150000</ele>
                <time>2014-05-24T06:52:17Z</time>
            </trkpt>
            <trkpt lon="99.828490" lat="14.479209">
                <ele>99.630000</ele>
                <time>2014-05-24T06:52:24Z</time>
            </trkpt>
            <trkpt lon="99.829149" lat="14.481574">
                <ele>99.150000</ele>
                <time>2014-05-24T06:53:11Z</time>
            </trkpt>
            <trkpt lon="99.829189" lat="14.482836">
                <ele>96.750000</ele>
                <time>2014-05-24T06:53:29Z</time>
            </trkpt>
            <trkpt lon="99.829357" lat="14.482931">
                <ele>95.790000</ele>
                <time>2014-05-24T06:53:35Z</time>
            </trkpt>
            <trkpt lon="99.830140" lat="14.482813">
                <ele>95.790000</ele>
                <time>2014-05-24T06:53:52Z</time>
            </trkpt>
            <trkpt lon="99.830241" lat="14.482971">
                <ele>95.790000</ele>
                <time>2014-05-24T06:53:59Z</time>
            </trkpt>
            <trkpt lon="99.830601" lat="14.484498">
                <ele>90.980000</ele>
                <time>2014-05-24T06:54:33Z</time>
            </trkpt>
            <trkpt lon="99.830492" lat="14.484799">
                <ele>90.980000</ele>
                <time>2014-05-24T06:55:18Z</time>
            </trkpt>
            <trkpt lon="99.831363" lat="14.485154">
                <ele>89.060000</ele>
                <time>2014-05-24T06:56:08Z</time>
            </trkpt>
            <trkpt lon="99.831456" lat="14.485582">
                <ele>89.060000</ele>
                <time>2014-05-24T06:56:26Z</time>
            </trkpt>
            <trkpt lon="99.831725" lat="14.485949">
                <ele>89.060000</ele>
                <time>2014-05-24T06:56:38Z</time>
            </trkpt>
            <trkpt lon="99.831591" lat="14.487125">
                <ele>89.060000</ele>
                <time>2014-05-24T06:57:10Z</time>
            </trkpt>
            <trkpt lon="99.831679" lat="14.487908">
                <ele>97.710000</ele>
                <time>2014-05-24T06:58:45Z</time>
            </trkpt>
            <trkpt lon="99.832002" lat="14.488420">
                <ele>96.270000</ele>
                <time>2014-05-24T07:00:10Z</time>
            </trkpt>
            <trkpt lon="99.832156" lat="14.488576">
                <ele>90.500000</ele>
                <time>2014-05-24T07:00:28Z</time>
            </trkpt>
            <trkpt lon="99.832437" lat="14.489491">
                <ele>86.180000</ele>
                <time>2014-05-24T07:01:22Z</time>
            </trkpt>
            <trkpt lon="99.832409" lat="14.491317">
                <ele>80.890000</ele>
                <time>2014-05-24T07:02:51Z</time>
            </trkpt>
            <trkpt lon="99.831109" lat="14.491590">
                <ele>87.620000</ele>
                <time>2014-05-24T07:03:42Z</time>
            </trkpt>
            <trkpt lon="99.830607" lat="14.491820">
                <ele>89.060000</ele>
                <time>2014-05-24T07:04:04Z</time>
            </trkpt>
            <trkpt lon="99.830418" lat="14.492034">
                <ele>89.060000</ele>
                <time>2014-05-24T07:04:13Z</time>
            </trkpt>
            <trkpt lon="99.830691" lat="14.492406">
                <ele>87.620000</ele>
                <time>2014-05-24T07:04:27Z</time>
            </trkpt>
            <trkpt lon="99.830724" lat="14.494373">
                <ele>86.660000</ele>
                <time>2014-05-24T07:05:29Z</time>
            </trkpt>
            <trkpt lon="99.831005" lat="14.494713">
                <ele>86.180000</ele>
                <time>2014-05-24T07:05:47Z</time>
            </trkpt>
            <trkpt lon="99.830974" lat="14.494462">
                <ele>85.690000</ele>
                <time>2014-05-24T07:05:59Z</time>
            </trkpt>
            <trkpt lon="99.830241" lat="14.494332">
                <ele>89.060000</ele>
                <time>2014-05-24T07:06:24Z</time>
            </trkpt>
            <trkpt lon="99.830199" lat="14.494117">
                <ele>88.100000</ele>
                <time>2014-05-24T07:06:32Z</time>
            </trkpt>
            <trkpt lon="99.829987" lat="14.494093">
                <ele>89.540000</ele>
                <time>2014-05-24T07:06:41Z</time>
            </trkpt>
            <trkpt lon="99.829977" lat="14.494084">
                <ele>89.540000</ele>
                <time>2014-05-24T07:07:42Z</time>
            </trkpt>
            <trkpt lon="99.830037" lat="14.492283">
                <ele>90.020000</ele>
                <time>2014-05-24T07:08:32Z</time>
            </trkpt>
            <trkpt lon="99.828315" lat="14.492264">
                <ele>96.750000</ele>
                <time>2014-05-24T07:09:17Z</time>
            </trkpt>
            <trkpt lon="99.827313" lat="14.492643">
                <ele>98.670000</ele>
                <time>2014-05-24T07:09:43Z</time>
            </trkpt>
            <trkpt lon="99.826076" lat="14.493402">
                <ele>101.560000</ele>
                <time>2014-05-24T07:10:17Z</time>
            </trkpt>
            <trkpt lon="99.825370" lat="14.493623">
                <ele>103.000000</ele>
                <time>2014-05-24T07:10:33Z</time>
            </trkpt>
            <trkpt lon="99.820562" lat="14.494025">
                <ele>102.520000</ele>
                <time>2014-05-24T07:11:54Z</time>
            </trkpt>
            <trkpt lon="99.819375" lat="14.493963">
                <ele>103.480000</ele>
                <time>2014-05-24T07:21:58Z</time>
            </trkpt>
            <trkpt lon="99.818550" lat="14.496353">
                <ele>104.440000</ele>
                <time>2014-05-24T07:22:51Z</time>
            </trkpt>
            <trkpt lon="99.818279" lat="14.497874">
                <ele>104.920000</ele>
                <time>2014-05-24T07:23:18Z</time>
            </trkpt>
            <trkpt lon="99.818914" lat="14.498783">
                <ele>105.880000</ele>
                <time>2014-05-24T07:23:40Z</time>
            </trkpt>
            <trkpt lon="99.820738" lat="14.500797">
                <ele>111.170000</ele>
                <time>2014-05-24T07:24:34Z</time>
            </trkpt>
            <trkpt lon="99.820926" lat="14.501193">
                <ele>112.130000</ele>
                <time>2014-05-24T07:24:43Z</time>
            </trkpt>
            <trkpt lon="99.821190" lat="14.501724">
                <ele>113.090000</ele>
                <time>2014-05-24T07:25:06Z</time>
            </trkpt>
            <trkpt lon="99.821208" lat="14.501743">
                <ele>113.090000</ele>
                <time>2014-05-24T07:25:15Z</time>
            </trkpt>
            <trkpt lon="99.821658" lat="14.501594">
                <ele>108.770000</ele>
                <time>2014-05-24T07:25:27Z</time>
            </trkpt>
            <trkpt lon="99.821812" lat="14.501747">
                <ele>106.840000</ele>
                <time>2014-05-24T07:25:31Z</time>
            </trkpt>
            <trkpt lon="99.821740" lat="14.502320">
                <ele>108.770000</ele>
                <time>2014-05-24T07:25:45Z</time>
            </trkpt>
            <trkpt lon="99.822020" lat="14.502665">
                <ele>104.920000</ele>
                <time>2014-05-24T07:25:54Z</time>
            </trkpt>
            <trkpt lon="99.822096" lat="14.503429">
                <ele>104.440000</ele>
                <time>2014-05-24T07:26:08Z</time>
            </trkpt>
            <trkpt lon="99.822043" lat="14.503702">
                <ele>103.960000</ele>
                <time>2014-05-24T07:26:14Z</time>
            </trkpt>
            <trkpt lon="99.821139" lat="14.504873">
                <ele>109.250000</ele>
                <time>2014-05-24T07:26:50Z</time>
            </trkpt>
            <trkpt lon="99.821265" lat="14.504975">
                <ele>108.770000</ele>
                <time>2014-05-24T07:26:55Z</time>
            </trkpt>
            <trkpt lon="99.822461" lat="14.505306">
                <ele>105.880000</ele>
                <time>2014-05-24T07:27:43Z</time>
            </trkpt>
            <trkpt lon="99.823437" lat="14.504772">
                <ele>105.400000</ele>
                <time>2014-05-24T07:28:03Z</time>
            </trkpt>
            <trkpt lon="99.824057" lat="14.504635">
                <ele>104.440000</ele>
                <time>2014-05-24T07:28:17Z</time>
            </trkpt>
            <trkpt lon="99.825198" lat="14.504671">
                <ele>99.150000</ele>
                <time>2014-05-24T07:28:39Z</time>
            </trkpt>
            <trkpt lon="99.825740" lat="14.504424">
                <ele>96.750000</ele>
                <time>2014-05-24T07:28:48Z</time>
            </trkpt>
            <trkpt lon="99.827270" lat="14.505108">
                <ele>91.460000</ele>
                <time>2014-05-24T07:29:10Z</time>
            </trkpt>
            <trkpt lon="99.829051" lat="14.505485">
                <ele>87.140000</ele>
                <time>2014-05-24T07:29:47Z</time>
            </trkpt>
            <trkpt lon="99.828551" lat="14.505295">
                <ele>86.180000</ele>
                <time>2014-05-24T07:30:08Z</time>
            </trkpt>
            <trkpt lon="99.828229" lat="14.505368">
                <ele>89.060000</ele>
                <time>2014-05-24T07:30:27Z</time>
            </trkpt>
            <trkpt lon="99.827534" lat="14.505192">
                <ele>90.020000</ele>
                <time>2014-05-24T07:31:09Z</time>
            </trkpt>
            <trkpt lon="99.827211" lat="14.505419">
                <ele>91.940000</ele>
                <time>2014-05-24T07:31:25Z</time>
            </trkpt>
            <trkpt lon="99.826942" lat="14.506633">
                <ele>98.190000</ele>
                <time>2014-05-24T07:32:05Z</time>
            </trkpt>
            <trkpt lon="99.826916" lat="14.508274">
                <ele>100.110000</ele>
                <time>2014-05-24T07:32:53Z</time>
            </trkpt>
            <trkpt lon="99.826675" lat="14.508371">
                <ele>102.040000</ele>
                <time>2014-05-24T07:33:03Z</time>
            </trkpt>
            <trkpt lon="99.826233" lat="14.508195">
                <ele>101.560000</ele>
                <time>2014-05-24T07:33:20Z</time>
            </trkpt>
            <trkpt lon="99.826080" lat="14.507573">
                <ele>103.000000</ele>
                <time>2014-05-24T07:33:40Z</time>
            </trkpt>
            <trkpt lon="99.825781" lat="14.507285">
                <ele>104.440000</ele>
                <time>2014-05-24T07:33:51Z</time>
            </trkpt>
            <trkpt lon="99.825333" lat="14.506986">
                <ele>106.840000</ele>
                <time>2014-05-24T07:34:10Z</time>
            </trkpt>
            <trkpt lon="99.824643" lat="14.506932">
                <ele>111.650000</ele>
                <time>2014-05-24T07:34:42Z</time>
            </trkpt>
            <trkpt lon="99.824122" lat="14.507023">
                <ele>113.570000</ele>
                <time>2014-05-24T07:35:04Z</time>
            </trkpt>
            <trkpt lon="99.823762" lat="14.507296">
                <ele>114.530000</ele>
                <time>2014-05-24T07:35:16Z</time>
            </trkpt>
            <trkpt lon="99.823594" lat="14.507617">
                <ele>115.500000</ele>
                <time>2014-05-24T07:35:26Z</time>
            </trkpt>
            <trkpt lon="99.823418" lat="14.507599">
                <ele>115.980000</ele>
                <time>2014-05-24T07:35:31Z</time>
            </trkpt>
            <trkpt lon="99.821884" lat="14.505921">
                <ele>110.690000</ele>
                <time>2014-05-24T07:36:07Z</time>
            </trkpt>
            <trkpt lon="99.820840" lat="14.505490">
                <ele>112.130000</ele>
                <time>2014-05-24T07:36:23Z</time>
            </trkpt>
            <trkpt lon="99.820159" lat="14.505267">
                <ele>110.690000</ele>
                <time>2014-05-24T07:36:34Z</time>
            </trkpt>
            <trkpt lon="99.819605" lat="14.505274">
                <ele>109.730000</ele>
                <time>2014-05-24T07:36:42Z</time>
            </trkpt>
            <trkpt lon="99.819359" lat="14.505615">
                <ele>109.250000</ele>
                <time>2014-05-24T07:36:49Z</time>
            </trkpt>
            <trkpt lon="99.818736" lat="14.506925">
                <ele>112.610000</ele>
                <time>2014-05-24T07:37:13Z</time>
            </trkpt>
            <trkpt lon="99.818657" lat="14.507358">
                <ele>113.570000</ele>
                <time>2014-05-24T07:37:23Z</time>
            </trkpt>
            <trkpt lon="99.818491" lat="14.507519">
                <ele>113.570000</ele>
                <time>2014-05-24T07:37:28Z</time>
            </trkpt>
            <trkpt lon="99.816197" lat="14.507913">
                <ele>111.170000</ele>
                <time>2014-05-24T07:38:05Z</time>
            </trkpt>
            <trkpt lon="99.816162" lat="14.508117">
                <ele>111.170000</ele>
                <time>2014-05-24T07:38:12Z</time>
            </trkpt>
            <trkpt lon="99.816997" lat="14.509246">
                <ele>113.570000</ele>
                <time>2014-05-24T07:38:40Z</time>
            </trkpt>
            <trkpt lon="99.817378" lat="14.510010">
                <ele>115.500000</ele>
                <time>2014-05-24T07:38:58Z</time>
            </trkpt>
            <trkpt lon="99.817644" lat="14.511729">
                <ele>117.420000</ele>
                <time>2014-05-24T07:50:12Z</time>
            </trkpt>
            <trkpt lon="99.817629" lat="14.512587">
                <ele>118.860000</ele>
                <time>2014-05-24T07:51:39Z</time>
            </trkpt>
            <trkpt lon="99.818765" lat="14.514381">
                <ele>128.950000</ele>
                <time>2014-05-24T07:52:51Z</time>
            </trkpt>
            <trkpt lon="99.818975" lat="14.514634">
                <ele>129.430000</ele>
                <time>2014-05-24T07:53:02Z</time>
            </trkpt>
            <trkpt lon="99.819304" lat="14.515023">
                <ele>127.990000</ele>
                <time>2014-05-24T07:53:18Z</time>
            </trkpt>
            <trkpt lon="99.819504" lat="14.515224">
                <ele>125.590000</ele>
                <time>2014-05-24T07:53:23Z</time>
            </trkpt>
            <trkpt lon="99.820099" lat="14.516134">
                <ele>115.500000</ele>
                <time>2014-05-24T07:53:40Z</time>
            </trkpt>
            <trkpt lon="99.821558" lat="14.516681">
                <ele>108.290000</ele>
                <time>2014-05-24T07:54:09Z</time>
            </trkpt>
            <trkpt lon="99.821955" lat="14.517042">
                <ele>106.360000</ele>
                <time>2014-05-24T07:54:20Z</time>
            </trkpt>
            <trkpt lon="99.822376" lat="14.517213">
                <ele>104.920000</ele>
                <time>2014-05-24T07:54:28Z</time>
            </trkpt>
            <trkpt lon="99.822468" lat="14.517278">
                <ele>103.960000</ele>
                <time>2014-05-24T07:54:30Z</time>
            </trkpt>
            <trkpt lon="99.822700" lat="14.517637">
                <ele>102.040000</ele>
                <time>2014-05-24T07:54:37Z</time>
            </trkpt>
            <trkpt lon="99.822836" lat="14.518428">
                <ele>103.000000</ele>
                <time>2014-05-24T07:54:52Z</time>
            </trkpt>
            <trkpt lon="99.822999" lat="14.518730">
                <ele>100.110000</ele>
                <time>2014-05-24T07:54:58Z</time>
            </trkpt>
            <trkpt lon="99.824506" lat="14.519937">
                <ele>90.020000</ele>
                <time>2014-05-24T07:55:23Z</time>
            </trkpt>
            <trkpt lon="99.824864" lat="14.520442">
                <ele>88.580000</ele>
                <time>2014-05-24T07:55:33Z</time>
            </trkpt>
            <trkpt lon="99.826053" lat="14.521250">
                <ele>85.210000</ele>
                <time>2014-05-24T07:56:06Z</time>
            </trkpt>
            <trkpt lon="99.826238" lat="14.522473">
                <ele>85.210000</ele>
                <time>2014-05-24T08:24:16Z</time>
            </trkpt>
            <trkpt lon="99.825489" lat="14.523830">
                <ele>87.620000</ele>
                <time>2014-05-24T08:25:04Z</time>
            </trkpt>
            <trkpt lon="99.825550" lat="14.523977">
                <ele>87.620000</ele>
                <time>2014-05-24T08:25:10Z</time>
            </trkpt>
            <trkpt lon="99.826367" lat="14.523957">
                <ele>85.210000</ele>
                <time>2014-05-24T08:25:28Z</time>
            </trkpt>
            <trkpt lon="99.826881" lat="14.524336">
                <ele>84.250000</ele>
                <time>2014-05-24T08:25:40Z</time>
            </trkpt>
            <trkpt lon="99.827899" lat="14.524603">
                <ele>80.890000</ele>
                <time>2014-05-24T08:25:57Z</time>
            </trkpt>
            <trkpt lon="99.828035" lat="14.524581">
                <ele>79.930000</ele>
                <time>2014-05-24T08:25:59Z</time>
            </trkpt>
            <trkpt lon="99.828655" lat="14.525186">
                <ele>78.970000</ele>
                <time>2014-05-24T08:26:19Z</time>
            </trkpt>
            <trkpt lon="99.829605" lat="14.526459">
                <ele>78.970000</ele>
                <time>2014-05-24T08:26:49Z</time>
            </trkpt>
            <trkpt lon="99.829930" lat="14.526641">
                <ele>77.520000</ele>
                <time>2014-05-24T08:26:56Z</time>
            </trkpt>
            <trkpt lon="99.831079" lat="14.526784">
                <ele>74.160000</ele>
                <time>2014-05-24T08:27:17Z</time>
            </trkpt>
            <trkpt lon="99.831297" lat="14.527184">
                <ele>72.240000</ele>
                <time>2014-05-24T08:27:24Z</time>
            </trkpt>
            <trkpt lon="99.831478" lat="14.528208">
                <ele>76.080000</ele>
                <time>2014-05-24T08:27:42Z</time>
            </trkpt>
            <trkpt lon="99.831909" lat="14.528545">
                <ele>79.450000</ele>
                <time>2014-05-24T08:27:57Z</time>
            </trkpt>
            <trkpt lon="99.831911" lat="14.528953">
                <ele>80.890000</ele>
                <time>2014-05-24T08:28:12Z</time>
            </trkpt>
            <trkpt lon="99.830898" lat="14.531059">
                <ele>81.370000</ele>
                <time>2014-05-24T08:29:01Z</time>
            </trkpt>
            <trkpt lon="99.830979" lat="14.531187">
                <ele>80.890000</ele>
                <time>2014-05-24T08:29:06Z</time>
            </trkpt>
            <trkpt lon="99.832510" lat="14.532015">
                <ele>69.830000</ele>
                <time>2014-05-24T08:29:34Z</time>
            </trkpt>
            <trkpt lon="99.833906" lat="14.533799">
                <ele>64.070000</ele>
                <time>2014-05-24T08:30:13Z</time>
            </trkpt>
            <trkpt lon="99.836649" lat="14.533855">
                <ele>61.180000</ele>
                <time>2014-05-24T08:31:00Z</time>
            </trkpt>
            <trkpt lon="99.837357" lat="14.534184">
                <ele>60.220000</ele>
                <time>2014-05-24T08:31:13Z</time>
            </trkpt>
            <trkpt lon="99.837702" lat="14.535096">
                <ele>58.780000</ele>
                <time>2014-05-24T08:31:29Z</time>
            </trkpt>
            <trkpt lon="99.838857" lat="14.539764">
                <ele>57.820000</ele>
                <time>2014-05-24T08:32:47Z</time>
            </trkpt>
            <trkpt lon="99.838733" lat="14.540014">
                <ele>57.340000</ele>
                <time>2014-05-24T08:32:54Z</time>
            </trkpt>
            <trkpt lon="99.837929" lat="14.540001">
                <ele>57.820000</ele>
                <time>2014-05-24T08:33:13Z</time>
            </trkpt>
            <trkpt lon="99.837844" lat="14.540128">
                <ele>57.340000</ele>
                <time>2014-05-24T08:33:23Z</time>
            </trkpt>
            <trkpt lon="99.837780" lat="14.540106">
                <ele>54.930000</ele>
                <time>2014-05-24T08:46:34Z</time>
            </trkpt>
            <trkpt lon="99.839284" lat="14.540089">
                <ele>53.970000</ele>
                <time>2014-05-24T08:47:14Z</time>
            </trkpt>
            <trkpt lon="99.841021" lat="14.540220">
                <ele>52.530000</ele>
                <time>2014-05-24T08:47:46Z</time>
            </trkpt>
            <trkpt lon="99.841410" lat="14.540326">
                <ele>51.570000</ele>
                <time>2014-05-24T08:47:55Z</time>
            </trkpt>
            <trkpt lon="99.841264" lat="14.540788">
                <ele>51.090000</ele>
                <time>2014-05-24T08:48:05Z</time>
            </trkpt>
            <trkpt lon="99.839821" lat="14.541762">
                <ele>55.410000</ele>
                <time>2014-05-24T08:48:37Z</time>
            </trkpt>
            <trkpt lon="99.839623" lat="14.541859">
                <ele>53.970000</ele>
                <time>2014-05-24T08:48:41Z</time>
            </trkpt>
            <trkpt lon="99.839296" lat="14.542324">
                <ele>54.450000</ele>
                <time>2014-05-24T08:48:51Z</time>
            </trkpt>
            <trkpt lon="99.839090" lat="14.543057">
                <ele>56.370000</ele>
                <time>2014-05-24T08:49:05Z</time>
            </trkpt>
            <trkpt lon="99.839434" lat="14.544413">
                <ele>58.300000</ele>
                <time>2014-05-24T08:49:35Z</time>
            </trkpt>
            <trkpt lon="99.839320" lat="14.544515">
                <ele>58.780000</ele>
                <time>2014-05-24T08:49:39Z</time>
            </trkpt>
            <trkpt lon="99.837676" lat="14.544720">
                <ele>57.340000</ele>
                <time>2014-05-24T08:50:08Z</time>
            </trkpt>
            <trkpt lon="99.836761" lat="14.545018">
                <ele>57.820000</ele>
                <time>2014-05-24T08:50:23Z</time>
            </trkpt>
            <trkpt lon="99.835717" lat="14.544871">
                <ele>57.340000</ele>
                <time>2014-05-24T08:50:40Z</time>
            </trkpt>
            <trkpt lon="99.834556" lat="14.545456">
                <ele>58.780000</ele>
                <time>2014-05-24T08:51:04Z</time>
            </trkpt>
            <trkpt lon="99.834044" lat="14.544836">
                <ele>59.740000</ele>
                <time>2014-05-24T08:51:21Z</time>
            </trkpt>
            <trkpt lon="99.833810" lat="14.544992">
                <ele>62.620000</ele>
                <time>2014-05-24T08:51:36Z</time>
            </trkpt>
            <trkpt lon="99.833705" lat="14.545394">
                <ele>61.660000</ele>
                <time>2014-05-24T08:51:48Z</time>
            </trkpt>
            <trkpt lon="99.832997" lat="14.546079">
                <ele>63.100000</ele>
                <time>2014-05-24T08:52:12Z</time>
            </trkpt>
            <trkpt lon="99.831474" lat="14.546651">
                <ele>68.870000</ele>
                <time>2014-05-24T08:52:57Z</time>
            </trkpt>
            <trkpt lon="99.831282" lat="14.546895">
                <ele>69.350000</ele>
                <time>2014-05-24T08:53:09Z</time>
            </trkpt>
            <trkpt lon="99.831204" lat="14.548546">
                <ele>68.390000</ele>
                <time>2014-05-24T08:53:48Z</time>
            </trkpt>
            <trkpt lon="99.831876" lat="14.549616">
                <ele>62.620000</ele>
                <time>2014-05-24T08:54:07Z</time>
            </trkpt>
            <trkpt lon="99.832109" lat="14.551028">
                <ele>61.180000</ele>
                <time>2014-05-24T08:54:31Z</time>
            </trkpt>
            <trkpt lon="99.831895" lat="14.551314">
                <ele>61.180000</ele>
                <time>2014-05-24T08:54:38Z</time>
            </trkpt>
            <trkpt lon="99.830082" lat="14.552749">
                <ele>66.470000</ele>
                <time>2014-05-24T08:55:22Z</time>
            </trkpt>
            <trkpt lon="99.830303" lat="14.553482">
                <ele>63.580000</ele>
                <time>2014-05-24T08:55:41Z</time>
            </trkpt>
            <trkpt lon="99.829856" lat="14.553703">
                <ele>65.510000</ele>
                <time>2014-05-24T08:56:07Z</time>
            </trkpt>
            <trkpt lon="99.829973" lat="14.554087">
                <ele>63.580000</ele>
                <time>2014-05-24T08:56:25Z</time>
            </trkpt>
            <trkpt lon="99.830531" lat="14.554584">
                <ele>64.070000</ele>
                <time>2014-05-24T08:56:42Z</time>
            </trkpt>
            <trkpt lon="99.830127" lat="14.555256">
                <ele>65.030000</ele>
                <time>2014-05-24T08:57:03Z</time>
            </trkpt>
            <trkpt lon="99.829705" lat="14.556464">
                <ele>67.910000</ele>
                <time>2014-05-24T08:57:34Z</time>
            </trkpt>
            <trkpt lon="99.829569" lat="14.556720">
                <ele>67.910000</ele>
                <time>2014-05-24T08:57:41Z</time>
            </trkpt>
            <trkpt lon="99.829661" lat="14.556817">
                <ele>67.910000</ele>
                <time>2014-05-24T08:57:46Z</time>
            </trkpt>
            <trkpt lon="99.829930" lat="14.556883">
                <ele>66.470000</ele>
                <time>2014-05-24T08:57:53Z</time>
            </trkpt>
            <trkpt lon="99.830483" lat="14.556742">
                <ele>65.030000</ele>
                <time>2014-05-24T08:58:07Z</time>
            </trkpt>
            <trkpt lon="99.830787" lat="14.556675">
                <ele>63.580000</ele>
                <time>2014-05-24T08:58:16Z</time>
            </trkpt>
            <trkpt lon="99.833192" lat="14.555727">
                <ele>59.740000</ele>
                <time>2014-05-24T08:59:18Z</time>
            </trkpt>
            <trkpt lon="99.834201" lat="14.556126">
                <ele>59.260000</ele>
                <time>2014-05-24T08:59:47Z</time>
            </trkpt>
            <trkpt lon="99.835430" lat="14.556893">
                <ele>60.220000</ele>
                <time>2014-05-24T09:00:16Z</time>
            </trkpt>
            <trkpt lon="99.836287" lat="14.557346">
                <ele>59.260000</ele>
                <time>2014-05-24T09:00:37Z</time>
            </trkpt>
            <trkpt lon="99.836401" lat="14.557828">
                <ele>62.620000</ele>
                <time>2014-05-24T09:00:54Z</time>
            </trkpt>
            <trkpt lon="99.837915" lat="14.557681">
                <ele>58.780000</ele>
                <time>2014-05-24T09:01:24Z</time>
            </trkpt>
            <trkpt lon="99.839052" lat="14.557128">
                <ele>55.890000</ele>
                <time>2014-05-24T09:01:43Z</time>
            </trkpt>
            <trkpt lon="99.839358" lat="14.557158">
                <ele>54.930000</ele>
                <time>2014-05-24T09:01:49Z</time>
            </trkpt>
            <trkpt lon="99.839760" lat="14.557571">
                <ele>54.930000</ele>
                <time>2014-05-24T09:02:03Z</time>
            </trkpt>
            <trkpt lon="99.839563" lat="14.557305">
                <ele>54.930000</ele>
                <time>2014-05-24T09:02:15Z</time>
            </trkpt>
            <trkpt lon="99.839693" lat="14.557011">
                <ele>54.930000</ele>
                <time>2014-05-24T09:02:23Z</time>
            </trkpt>
            <trkpt lon="99.839807" lat="14.557006">
                <ele>54.930000</ele>
                <time>2014-05-24T09:02:25Z</time>
            </trkpt>
            <trkpt lon="99.840732" lat="14.557061">
                <ele>53.010000</ele>
                <time>2014-05-24T09:02:39Z</time>
            </trkpt>
            <trkpt lon="99.842066" lat="14.557586">
                <ele>52.050000</ele>
                <time>2014-05-24T09:03:00Z</time>
            </trkpt>
            <trkpt lon="99.842249" lat="14.557470">
                <ele>51.090000</ele>
                <time>2014-05-24T09:03:06Z</time>
            </trkpt>
            <trkpt lon="99.842471" lat="14.555243">
                <ele>51.090000</ele>
                <time>2014-05-24T09:03:48Z</time>
            </trkpt>
            <trkpt lon="99.841825" lat="14.552878">
                <ele>50.610000</ele>
                <time>2014-05-24T09:04:33Z</time>
            </trkpt>
            <trkpt lon="99.841949" lat="14.552367">
                <ele>51.570000</ele>
                <time>2014-05-24T09:04:44Z</time>
            </trkpt>
            <trkpt lon="99.843575" lat="14.551403">
                <ele>48.680000</ele>
                <time>2014-05-24T09:05:17Z</time>
            </trkpt>
            <trkpt lon="99.843751" lat="14.551096">
                <ele>49.160000</ele>
                <time>2014-05-24T09:05:23Z</time>
            </trkpt>
            <trkpt lon="99.844125" lat="14.549169">
                <ele>49.160000</ele>
                <time>2014-05-24T09:05:59Z</time>
            </trkpt>
            <trkpt lon="99.843377" lat="14.545866">
                <ele>49.160000</ele>
                <time>2014-05-24T09:07:01Z</time>
            </trkpt>
            <trkpt lon="99.843436" lat="14.545472">
                <ele>48.680000</ele>
                <time>2014-05-24T09:07:10Z</time>
            </trkpt>
            <trkpt lon="99.845872" lat="14.545012">
                <ele>46.280000</ele>
                <time>2014-05-24T09:07:55Z</time>
            </trkpt>
            <trkpt lon="99.845977" lat="14.543524">
                <ele>45.800000</ele>
                <time>2014-05-24T09:08:26Z</time>
            </trkpt>
            <trkpt lon="99.845351" lat="14.543467">
                <ele>46.280000</ele>
                <time>2014-05-24T09:08:52Z</time>
            </trkpt>
            <trkpt lon="99.845926" lat="14.543534">
                <ele>45.320000</ele>
                <time>2014-05-24T09:09:08Z</time>
            </trkpt>
            <trkpt lon="99.846086" lat="14.542841">
                <ele>46.280000</ele>
                <time>2014-05-24T09:09:27Z</time>
            </trkpt>
            <trkpt lon="99.845958" lat="14.540739">
                <ele>47.240000</ele>
                <time>2014-05-24T09:10:10Z</time>
            </trkpt>
            <trkpt lon="99.845758" lat="14.540617">
                <ele>47.720000</ele>
                <time>2014-05-24T09:10:17Z</time>
            </trkpt>
            <trkpt lon="99.845388" lat="14.540569">
                <ele>47.720000</ele>
                <time>2014-05-24T09:10:25Z</time>
            </trkpt>
            <trkpt lon="99.845252" lat="14.540391">
                <ele>47.240000</ele>
                <time>2014-05-24T09:10:31Z</time>
            </trkpt>
            <trkpt lon="99.844882" lat="14.534623">
                <ele>46.760000</ele>
                <time>2014-05-24T09:12:14Z</time>
            </trkpt>
            <trkpt lon="99.843853" lat="14.534485">
                <ele>48.200000</ele>
                <time>2014-05-24T09:12:37Z</time>
            </trkpt>
            <trkpt lon="99.843572" lat="14.532736">
                <ele>50.130000</ele>
                <time>2014-05-24T09:13:14Z</time>
            </trkpt>
            <trkpt lon="99.843586" lat="14.532300">
                <ele>49.650000</ele>
                <time>2014-05-24T09:13:23Z</time>
            </trkpt>
            <trkpt lon="99.843413" lat="14.532168">
                <ele>49.160000</ele>
                <time>2014-05-24T09:13:28Z</time>
            </trkpt>
            <trkpt lon="99.842794" lat="14.532128">
                <ele>53.970000</ele>
                <time>2014-05-24T09:13:56Z</time>
            </trkpt>
            <trkpt lon="99.842936" lat="14.532119">
                <ele>50.130000</ele>
                <time>2014-05-24T09:15:38Z</time>
            </trkpt>
            <trkpt lon="99.843203" lat="14.529713">
                <ele>49.650000</ele>
                <time>2014-05-24T09:16:43Z</time>
            </trkpt>
            <trkpt lon="99.842235" lat="14.529659">
                <ele>51.090000</ele>
                <time>2014-05-24T09:17:06Z</time>
            </trkpt>
            <trkpt lon="99.842110" lat="14.529531">
                <ele>51.090000</ele>
                <time>2014-05-24T09:17:11Z</time>
            </trkpt>
            <trkpt lon="99.842148" lat="14.526829">
                <ele>52.050000</ele>
                <time>2014-05-24T09:17:59Z</time>
            </trkpt>
            <trkpt lon="99.842358" lat="14.525908">
                <ele>51.570000</ele>
                <time>2014-05-24T09:18:16Z</time>
            </trkpt>
            <trkpt lon="99.842169" lat="14.525649">
                <ele>51.090000</ele>
                <time>2014-05-24T09:18:23Z</time>
            </trkpt>
            <trkpt lon="99.841443" lat="14.525319">
                <ele>52.050000</ele>
                <time>2014-05-24T09:18:37Z</time>
            </trkpt>
            <trkpt lon="99.841354" lat="14.525130">
                <ele>52.530000</ele>
                <time>2014-05-24T09:18:42Z</time>
            </trkpt>
            <trkpt lon="99.842506" lat="14.522628">
                <ele>51.090000</ele>
                <time>2014-05-24T09:19:29Z</time>
            </trkpt>
            <trkpt lon="99.843312" lat="14.521990">
                <ele>48.200000</ele>
                <time>2014-05-24T09:19:48Z</time>
            </trkpt>
            <trkpt lon="99.843962" lat="14.520973">
                <ele>48.200000</ele>
                <time>2014-05-24T09:20:09Z</time>
            </trkpt>
            <trkpt lon="99.844203" lat="14.520418">
                <ele>49.160000</ele>
                <time>2014-05-24T09:20:20Z</time>
            </trkpt>
            <trkpt lon="99.844124" lat="14.520269">
                <ele>49.650000</ele>
                <time>2014-05-24T09:20:25Z</time>
            </trkpt>
            <trkpt lon="99.843909" lat="14.520210">
                <ele>50.130000</ele>
                <time>2014-05-24T09:20:30Z</time>
            </trkpt>
            <trkpt lon="99.843889" lat="14.520046">
                <ele>50.610000</ele>
                <time>2014-05-24T09:20:36Z</time>
            </trkpt>
            <trkpt lon="99.845292" lat="14.519383">
                <ele>48.200000</ele>
                <time>2014-05-24T09:21:07Z</time>
            </trkpt>
            <trkpt lon="99.845771" lat="14.518828">
                <ele>47.720000</ele>
                <time>2014-05-24T09:21:21Z</time>
            </trkpt>
            <trkpt lon="99.845902" lat="14.517849">
                <ele>47.240000</ele>
                <time>2014-05-24T09:21:42Z</time>
            </trkpt>
            <trkpt lon="99.846424" lat="14.517744">
                <ele>49.650000</ele>
                <time>2014-05-24T09:22:01Z</time>
            </trkpt>
            <trkpt lon="99.846425" lat="14.517743">
                <ele>45.320000</ele>
                <time>2014-05-24T09:22:40Z</time>
            </trkpt>
            <trkpt lon="99.846423" lat="14.517744">
                <ele>47.240000</ele>
                <time>2014-05-24T09:24:29Z</time>
            </trkpt>
            <trkpt lon="99.846424" lat="14.517746">
                <ele>45.800000</ele>
                <time>2014-05-24T09:24:40Z</time>
            </trkpt>
            <trkpt lon="99.846359" lat="14.517751">
                <ele>45.800000</ele>
                <time>2014-05-24T09:24:45Z</time>
            </trkpt>
            <trkpt lon="99.845919" lat="14.517707">
                <ele>45.800000</ele>
                <time>2014-05-24T09:25:00Z</time>
            </trkpt>
            <trkpt lon="99.845613" lat="14.517235">
                <ele>46.760000</ele>
                <time>2014-05-24T09:25:15Z</time>
            </trkpt>
            <trkpt lon="99.845555" lat="14.516748">
                <ele>46.760000</ele>
                <time>2014-05-24T09:25:26Z</time>
            </trkpt>
            <trkpt lon="99.845549" lat="14.515101">
                <ele>45.320000</ele>
                <time>2014-05-24T09:26:00Z</time>
            </trkpt>
            <trkpt lon="99.845840" lat="14.514399">
                <ele>44.840000</ele>
                <time>2014-05-24T09:26:15Z</time>
            </trkpt>
            <trkpt lon="99.845865" lat="14.514103">
                <ele>43.880000</ele>
                <time>2014-05-24T09:26:21Z</time>
            </trkpt>
            <trkpt lon="99.844648" lat="14.513295">
                <ele>46.280000</ele>
                <time>2014-05-24T09:26:48Z</time>
            </trkpt>
            <trkpt lon="99.843438" lat="14.512951">
                <ele>45.800000</ele>
                <time>2014-05-24T09:27:13Z</time>
            </trkpt>
            <trkpt lon="99.842720" lat="14.512338">
                <ele>46.280000</ele>
                <time>2014-05-24T09:27:31Z</time>
            </trkpt>
            <trkpt lon="99.841124" lat="14.512239">
                <ele>49.160000</ele>
                <time>2014-05-24T09:28:05Z</time>
            </trkpt>
            <trkpt lon="99.840608" lat="14.512481">
                <ele>49.650000</ele>
                <time>2014-05-24T09:28:19Z</time>
            </trkpt>
            <trkpt lon="99.840275" lat="14.512750">
                <ele>51.570000</ele>
                <time>2014-05-24T09:28:29Z</time>
            </trkpt>
            <trkpt lon="99.840185" lat="14.512837">
                <ele>50.130000</ele>
                <time>2014-05-24T09:28:32Z</time>
            </trkpt>
            <trkpt lon="99.839349" lat="14.514073">
                <ele>55.410000</ele>
                <time>2014-05-24T09:29:10Z</time>
            </trkpt>
            <trkpt lon="99.839017" lat="14.514341">
                <ele>56.860000</ele>
                <time>2014-05-24T09:29:23Z</time>
            </trkpt>
            <trkpt lon="99.838428" lat="14.514490">
                <ele>56.370000</ele>
                <time>2014-05-24T09:29:37Z</time>
            </trkpt>
            <trkpt lon="99.838197" lat="14.514126">
                <ele>55.410000</ele>
                <time>2014-05-24T09:29:47Z</time>
            </trkpt>
            <trkpt lon="99.838199" lat="14.513902">
                <ele>53.490000</ele>
                <time>2014-05-24T09:29:51Z</time>
            </trkpt>
            <trkpt lon="99.837879" lat="14.513556">
                <ele>51.570000</ele>
                <time>2014-05-24T09:30:01Z</time>
            </trkpt>
            <trkpt lon="99.837378" lat="14.510006">
                <ele>53.010000</ele>
                <time>2014-05-24T09:31:04Z</time>
            </trkpt>
            <trkpt lon="99.837111" lat="14.509655">
                <ele>53.010000</ele>
                <time>2014-05-24T09:31:14Z</time>
            </trkpt>
            <trkpt lon="99.836736" lat="14.509536">
                <ele>54.450000</ele>
                <time>2014-05-24T09:31:32Z</time>
            </trkpt>
            <trkpt lon="99.836734" lat="14.509534">
                <ele>54.450000</ele>
                <time>2014-05-24T09:32:31Z</time>
            </trkpt>
            <trkpt lon="99.836726" lat="14.509533">
                <ele>53.970000</ele>
                <time>2014-05-24T09:33:34Z</time>
            </trkpt>
            <trkpt lon="99.836722" lat="14.509533">
                <ele>50.130000</ele>
                <time>2014-05-24T09:34:07Z</time>
            </trkpt>
            <trkpt lon="99.836722" lat="14.509533">
                <ele>54.450000</ele>
                <time>2014-05-24T09:34:46Z</time>
            </trkpt>
            <trkpt lon="99.836719" lat="14.509523">
                <ele>53.970000</ele>
                <time>2014-05-24T09:34:48Z</time>
            </trkpt>
            <trkpt lon="99.836714" lat="14.509507">
                <ele>53.970000</ele>
                <time>2014-05-24T09:34:50Z</time>
            </trkpt>
            <trkpt lon="99.836681" lat="14.509337">
                <ele>54.450000</ele>
                <time>2014-05-24T09:34:58Z</time>
            </trkpt>
            <trkpt lon="99.836461" lat="14.508444">
                <ele>56.370000</ele>
                <time>2014-05-24T09:35:27Z</time>
            </trkpt>
            <trkpt lon="99.836156" lat="14.507384">
                <ele>56.370000</ele>
                <time>2014-05-24T09:35:56Z</time>
            </trkpt>
            <trkpt lon="99.836553" lat="14.507170">
                <ele>54.450000</ele>
                <time>2014-05-24T09:36:08Z</time>
            </trkpt>
            <trkpt lon="99.836160" lat="14.506190">
                <ele>55.410000</ele>
                <time>2014-05-24T09:36:37Z</time>
            </trkpt>
            <trkpt lon="99.836187" lat="14.505876">
                <ele>54.930000</ele>
                <time>2014-05-24T09:36:44Z</time>
            </trkpt>
            <trkpt lon="99.836440" lat="14.505711">
                <ele>52.050000</ele>
                <time>2014-05-24T09:36:50Z</time>
            </trkpt>
            <trkpt lon="99.836281" lat="14.505136">
                <ele>53.490000</ele>
                <time>2014-05-24T09:37:09Z</time>
            </trkpt>
            <trkpt lon="99.837291" lat="14.504773">
                <ele>51.090000</ele>
                <time>2014-05-24T09:37:33Z</time>
            </trkpt>
            <trkpt lon="99.837519" lat="14.504525">
                <ele>50.610000</ele>
                <time>2014-05-24T09:37:40Z</time>
            </trkpt>
            <trkpt lon="99.837789" lat="14.503821">
                <ele>50.130000</ele>
                <time>2014-05-24T09:37:55Z</time>
            </trkpt>
            <trkpt lon="99.837857" lat="14.503703">
                <ele>49.650000</ele>
                <time>2014-05-24T09:37:58Z</time>
            </trkpt>
            <trkpt lon="99.838160" lat="14.503545">
                <ele>50.130000</ele>
                <time>2014-05-24T09:38:06Z</time>
            </trkpt>
            <trkpt lon="99.840873" lat="14.503700">
                <ele>45.800000</ele>
                <time>2014-05-24T09:38:59Z</time>
            </trkpt>
            <trkpt lon="99.842500" lat="14.504070">
                <ele>44.360000</ele>
                <time>2014-05-24T09:39:31Z</time>
            </trkpt>
            <trkpt lon="99.844138" lat="14.505086">
                <ele>42.920000</ele>
                <time>2014-05-24T09:40:09Z</time>
            </trkpt>
            <trkpt lon="99.844925" lat="14.505311">
                <ele>42.920000</ele>
                <time>2014-05-24T09:40:26Z</time>
            </trkpt>
            <trkpt lon="99.847276" lat="14.504564">
                <ele>40.990000</ele>
                <time>2014-05-24T09:42:19Z</time>
            </trkpt>
            <trkpt lon="99.848821" lat="14.503457">
                <ele>40.030000</ele>
                <time>2014-05-24T09:43:03Z</time>
            </trkpt>
            <trkpt lon="99.849401" lat="14.502707">
                <ele>40.990000</ele>
                <time>2014-05-24T09:43:22Z</time>
            </trkpt>
            <trkpt lon="99.850482" lat="14.502100">
                <ele>40.030000</ele>
                <time>2014-05-24T09:43:47Z</time>
            </trkpt>
            <trkpt lon="99.852817" lat="14.503023">
                <ele>38.590000</ele>
                <time>2014-05-24T09:44:39Z</time>
            </trkpt>
            <trkpt lon="99.852988" lat="14.502911">
                <ele>37.630000</ele>
                <time>2014-05-24T09:44:45Z</time>
            </trkpt>
            <trkpt lon="99.852886" lat="14.501044">
                <ele>38.590000</ele>
                <time>2014-05-24T09:45:28Z</time>
            </trkpt>
            <trkpt lon="99.852392" lat="14.499385">
                <ele>39.070000</ele>
                <time>2014-05-24T09:46:25Z</time>
            </trkpt>
            <trkpt lon="99.852208" lat="14.498782">
                <ele>38.110000</ele>
                <time>2014-05-24T09:46:41Z</time>
            </trkpt>
            <trkpt lon="99.854032" lat="14.498422">
                <ele>37.150000</ele>
                <time>2014-05-24T09:47:26Z</time>
            </trkpt>
            <trkpt lon="99.854114" lat="14.498257">
                <ele>37.630000</ele>
                <time>2014-05-24T09:47:31Z</time>
            </trkpt>
            <trkpt lon="99.853910" lat="14.496116">
                <ele>37.630000</ele>
                <time>2014-05-24T09:48:16Z</time>
            </trkpt>
            <trkpt lon="99.853785" lat="14.495650">
                <ele>37.630000</ele>
                <time>2014-05-24T09:48:27Z</time>
            </trkpt>
            <trkpt lon="99.853529" lat="14.495568">
                <ele>37.150000</ele>
                <time>2014-05-24T09:48:35Z</time>
            </trkpt>
            <trkpt lon="99.853360" lat="14.493388">
                <ele>37.630000</ele>
                <time>2014-05-24T09:49:22Z</time>
            </trkpt>
            <trkpt lon="99.853096" lat="14.492959">
                <ele>37.630000</ele>
                <time>2014-05-24T09:49:35Z</time>
            </trkpt>
            <trkpt lon="99.852990" lat="14.492272">
                <ele>37.630000</ele>
                <time>2014-05-24T09:49:52Z</time>
            </trkpt>
            <trkpt lon="99.854338" lat="14.491919">
                <ele>36.190000</ele>
                <time>2014-05-24T09:50:22Z</time>
            </trkpt>
            <trkpt lon="99.854597" lat="14.491569">
                <ele>36.670000</ele>
                <time>2014-05-24T09:50:30Z</time>
            </trkpt>
            <trkpt lon="99.854603" lat="14.491335">
                <ele>37.150000</ele>
                <time>2014-05-24T09:50:34Z</time>
            </trkpt>
            <trkpt lon="99.854770" lat="14.490555">
                <ele>36.670000</ele>
                <time>2014-05-24T09:50:49Z</time>
            </trkpt>
            <trkpt lon="99.852796" lat="14.485685">
                <ele>40.030000</ele>
                <time>2014-05-24T09:52:32Z</time>
            </trkpt>
            <trkpt lon="99.852696" lat="14.484039">
                <ele>40.510000</ele>
                <time>2014-05-24T09:53:13Z</time>
            </trkpt>
            <trkpt lon="99.852860" lat="14.484034">
                <ele>40.030000</ele>
                <time>2014-05-24T09:53:18Z</time>
            </trkpt>
            <trkpt lon="99.852893" lat="14.484158">
                <ele>39.550000</ele>
                <time>2014-05-24T09:53:24Z</time>
            </trkpt>
            <trkpt lon="99.853106" lat="14.484272">
                <ele>39.550000</ele>
                <time>2014-05-24T09:53:32Z</time>
            </trkpt>
            <trkpt lon="99.853417" lat="14.484246">
                <ele>39.070000</ele>
                <time>2014-05-24T09:53:39Z</time>
            </trkpt>
            <trkpt lon="99.853525" lat="14.484118">
                <ele>39.070000</ele>
                <time>2014-05-24T09:53:47Z</time>
            </trkpt>
            <trkpt lon="99.853383" lat="14.483709">
                <ele>39.550000</ele>
                <time>2014-05-24T09:54:02Z</time>
            </trkpt>
            <trkpt lon="99.853381" lat="14.483621">
                <ele>39.550000</ele>
                <time>2014-05-24T09:54:05Z</time>
            </trkpt>
            <trkpt lon="99.853675" lat="14.483354">
                <ele>41.470000</ele>
                <time>2014-05-24T10:28:27Z</time>
            </trkpt>
            <trkpt lon="99.853683" lat="14.483359">
                <ele>41.470000</ele>
                <time>2014-05-24T10:31:05Z</time>
            </trkpt>
            <trkpt lon="99.853687" lat="14.483329">
                <ele>41.470000</ele>
                <time>2014-05-24T10:34:00Z</time>
            </trkpt>
            <trkpt lon="99.853693" lat="14.483343">
                <ele>40.510000</ele>
                <time>2014-05-24T10:38:46Z</time>
            </trkpt>
        </trkseg>
    </trk>
</gpx>